Time;durP1;ratioP1;P1;durP2;ratioP2;P2;SDS_P1;SDS_P2;PMS_P1;PMS_P2;Temp;Humidity;BMP_temperature;BMP_pressure;BME280_temperature;BME280_humidity;BME280_pressure;Samples;Min_cycle;Max_cycle;Signal;HPM_P1;HPM_P2
2022/07/18 00:00:27;;;;;;;;;;;22.10;47.90;;;;;;5089508;28;19937;-60
2022/07/18 00:02:54;;;;;;;;;;;22.10;47.90;;;;;;5088940;28;20303;-59
2022/07/18 00:05:20;;;;;;;;;;;22.10;47.90;;;;;;5090812;28;19965;-59
2022/07/18 00:07:47;;;;;;;;;;;22.10;47.90;;;;;;5072153;28;19931;-59
2022/07/18 00:10:15;;;;;;;;;;;22.10;47.90;;;;;;5072610;28;20019;-59
2022/07/18 00:12:42;;;;;;;;;;;22.10;47.90;;;;;;5091125;28;20365;-57
2022/07/18 00:15:09;;;;;;;;;;;22.10;47.90;;;;;;5103243;27;19924;-58
2022/07/18 00:17:36;;;;;;;;;;;22.10;47.90;;;;;;5107352;27;20015;-59
2022/07/18 00:20:03;;;;;;;;;;;22.10;47.90;;;;;;5073320;28;19955;-59
2022/07/18 00:22:30;;;;;;;;;;;22.10;47.90;;;;;;5105947;27;19966;-60
2022/07/18 00:24:57;;;;;;;;;;;22.10;47.90;;;;;;5088417;28;20015;-59
2022/07/18 00:27:25;;;;;;;;;;;22.10;47.90;;;;;;5089284;28;19921;-58
2022/07/18 00:29:52;;;;;;;;;;;22.10;47.90;;;;;;5074353;28;19924;-58
2022/07/18 00:32:18;;;;;;;;;;;22.10;47.90;;;;;;5073734;28;19921;-59
2022/07/18 00:34:45;;;;;;;;;;;22.10;47.90;;;;;;5083052;28;19966;-59
2022/07/18 00:37:12;;;;;;;;;;;22.10;47.90;;;;;;5087164;28;19968;-61
2022/07/18 00:39:38;;;;;;;;;;;22.10;47.90;;;;;;5073802;28;20467;-59
2022/07/18 00:42:05;;;;;;;;;;;22.10;47.90;;;;;;5071672;28;19924;-59
2022/07/18 00:44:33;;;;;;;;;;;22.10;47.90;;;;;;5088314;28;19920;-59
2022/07/18 00:47:00;;;;;;;;;;;22.10;47.90;;;;;;5088536;28;19921;-59
2022/07/18 00:49:27;;;;;;;;;;;22.10;47.90;;;;;;5088894;28;19929;-60
2022/07/18 00:51:54;;;;;;;;;;;22.10;47.90;;;;;;5104801;28;20027;-60
2022/07/18 00:54:20;;;;;;;;;;;22.10;47.90;;;;;;5070391;28;19966;-60
2022/07/18 00:56:48;;;;;;;;;;;22.10;47.90;;;;;;5071346;28;19921;-60
2022/07/18 00:59:14;;;;;;;;;;;22.10;47.90;;;;;;5086405;28;19920;-60
2022/07/18 01:01:47;;;;;;;;;;;22.10;47.90;;;;;;5069241;28;19927;-59
2022/07/18 01:04:14;;;;;;;;;;;22.10;47.80;;;;;;5101066;28;19985;-59
2022/07/18 01:06:41;;;;;;;;;;;22.10;47.80;;;;;;5103520;28;20096;-59
2022/07/18 01:09:08;;;;;;;;;;;22.00;47.70;;;;;;5070265;28;20538;-60
2022/07/18 01:11:35;;;;;;;;;;;22.10;47.80;;;;;;5103629;27;19959;-60
2022/07/18 01:14:01;;;;;;;;;;;22.10;48.40;;;;;;5070044;28;20286;-60
2022/07/18 01:16:28;;;;;;;;;;;22.10;47.80;;;;;;5084639;28;19920;-60
2022/07/18 01:18:56;;;;;;;;;;;22.10;47.80;;;;;;5073051;28;19935;-61
2022/07/18 01:21:25;;;;;;;;;;;22.00;47.70;;;;;;5069900;28;19940;-60
2022/07/18 01:23:51;;;;;;;;;;;22.00;47.70;;;;;;5071440;28;19970;-60
2022/07/18 01:26:18;;;;;;;;;;;22.00;47.70;;;;;;5088006;28;19920;-60
2022/07/18 01:28:45;;;;;;;;;;;22.10;47.80;;;;;;5088534;28;20331;-60
2022/07/18 01:31:12;;;;;;;;;;;22.00;47.70;;;;;;5102720;28;20024;-60
2022/07/18 01:33:38;;;;;;;;;;;22.00;47.70;;;;;;5105510;27;20350;-59
2022/07/18 01:36:06;;;;;;;;;;;22.00;47.70;;;;;;5083915;28;20293;-60
2022/07/18 01:38:34;;;;;;;;;;;22.00;47.70;;;;;;5074688;28;19921;-60
2022/07/18 01:41:01;;;;;;;;;;;22.00;47.70;;;;;;5103210;27;19920;-60
2022/07/18 01:43:27;;;;;;;;;;;22.00;47.70;;;;;;5086271;28;19967;-60
2022/07/18 01:45:54;;;;;;;;;;;22.00;47.70;;;;;;5083494;28;19925;-60
2022/07/18 01:48:22;;;;;;;;;;;22.00;47.70;;;;;;5086709;28;19982;-60
2022/07/18 01:50:49;;;;;;;;;;;22.00;47.60;;;;;;5086110;28;19921;-60
2022/07/18 01:53:16;;;;;;;;;;;22.00;47.60;;;;;;5085146;28;20392;-58
2022/07/18 01:55:45;;;;;;;;;;;22.00;47.60;;;;;;5073839;28;19920;-58
2022/07/18 01:58:11;;;;;;;;;;;22.00;47.60;;;;;;5086303;28;19970;-59
2022/07/18 02:00:38;;;;;;;;;;;22.00;47.60;;;;;;5090761;28;19994;-60
2022/07/18 02:03:05;;;;;;;;;;;22.00;47.60;;;;;;5084922;28;19959;-59
2022/07/18 02:05:34;;;;;;;;;;;22.00;47.60;;;;;;5086174;28;19928;-60
2022/07/18 02:08:00;;;;;;;;;;;22.00;47.50;;;;;;5087775;28;19970;-59
2022/07/18 02:10:27;;;;;;;;;;;22.00;47.50;;;;;;5085860;28;19934;-59
2022/07/18 02:12:55;;;;;;;;;;;22.00;47.50;;;;;;5085450;28;19947;-59
2022/07/18 02:15:22;;;;;;;;;;;22.00;47.50;;;;;;5102181;28;19924;-59
2022/07/18 02:17:49;;;;;;;;;;;22.00;47.50;;;;;;5086692;28;19971;-60
2022/07/18 02:20:15;;;;;;;;;;;22.00;47.50;;;;;;5084360;28;19924;-59
2022/07/18 02:22:42;;;;;;;;;;;22.00;47.50;;;;;;5083238;28;19932;-59
2022/07/18 02:25:09;;;;;;;;;;;22.00;47.50;;;;;;5085496;28;20029;-59
2022/07/18 02:27:36;;;;;;;;;;;22.00;47.50;;;;;;5067813;28;19956;-59
2022/07/18 02:30:04;;;;;;;;;;;22.00;47.40;;;;;;5084918;28;19932;-59
2022/07/18 02:32:31;;;;;;;;;;;22.00;47.40;;;;;;5085950;28;19952;-59
2022/07/18 02:34:58;;;;;;;;;;;22.00;47.40;;;;;;5086514;28;19970;-59
2022/07/18 02:37:25;;;;;;;;;;;22.00;47.40;;;;;;5070276;28;19960;-59
2022/07/18 02:39:52;;;;;;;;;;;22.00;47.40;;;;;;5084135;28;20334;-60
2022/07/18 02:42:19;;;;;;;;;;;22.00;47.40;;;;;;5087113;28;19924;-59
2022/07/18 02:44:46;;;;;;;;;;;22.00;47.40;;;;;;5102548;28;19920;-60
2022/07/18 02:47:14;;;;;;;;;;;22.00;47.40;;;;;;5103573;28;20408;-58
2022/07/18 02:49:40;;;;;;;;;;;22.00;47.40;;;;;;5087108;28;19928;-59
2022/07/18 02:52:08;;;;;;;;;;;22.00;47.40;;;;;;5072144;28;20015;-57
2022/07/18 02:54:35;;;;;;;;;;;22.00;47.40;;;;;;5099672;28;19920;-59
2022/07/18 02:57:02;;;;;;;;;;;22.00;47.40;;;;;;5102361;28;19921;-59
2022/07/18 02:59:29;;;;;;;;;;;22.00;47.40;;;;;;5085442;28;19936;-60
2022/07/18 03:01:56;;;;;;;;;;;22.00;47.30;;;;;;5087544;28;19976;-59
2022/07/18 03:04:24;;;;;;;;;;;22.00;47.40;;;;;;5087768;28;19956;-60
2022/07/18 03:06:51;;;;;;;;;;;22.00;47.40;;;;;;5106192;28;19943;-59
2022/07/18 03:09:18;;;;;;;;;;;22.00;47.40;;;;;;5088126;28;19927;-58
2022/07/18 03:11:44;;;;;;;;;;;22.00;47.40;;;;;;5091199;28;19924;-59
2022/07/18 03:14:11;;;;;;;;;;;22.00;47.40;;;;;;5086931;28;20454;-59
2022/07/18 03:16:38;;;;;;;;;;;22.00;47.40;;;;;;5104415;28;19943;-58
2022/07/18 03:19:05;;;;;;;;;;;22.00;47.30;;;;;;5107057;28;19936;-60
2022/07/18 03:21:33;;;;;;;;;;;22.00;47.40;;;;;;5090524;28;19921;-59
2022/07/18 03:23:59;;;;;;;;;;;22.00;47.40;;;;;;5086356;28;20034;-59
2022/07/18 03:26:26;;;;;;;;;;;22.00;47.40;;;;;;5088486;28;19920;-59
2022/07/18 03:28:53;;;;;;;;;;;22.00;47.40;;;;;;5105477;28;20362;-58
2022/07/18 03:31:20;;;;;;;;;;;22.00;47.40;;;;;;5088710;28;19920;-59
2022/07/18 03:33:47;;;;;;;;;;;22.00;47.40;;;;;;5091146;28;19927;-59
2022/07/18 03:36:14;;;;;;;;;;;22.00;47.40;;;;;;5103374;27;20003;-58
2022/07/18 03:38:42;;;;;;;;;;;22.00;47.40;;;;;;5088277;28;19963;-59
2022/07/18 03:41:09;;;;;;;;;;;22.00;47.40;;;;;;5086734;28;19932;-59
2022/07/18 03:43:36;;;;;;;;;;;22.00;47.40;;;;;;5091784;28;20366;-59
2022/07/18 03:46:03;;;;;;;;;;;21.90;47.30;;;;;;5083398;28;19921;-59
2022/07/18 03:48:30;;;;;;;;;;;22.00;47.40;;;;;;5072630;28;19921;-59
2022/07/18 03:50:56;;;;;;;;;;;22.00;47.40;;;;;;5088666;28;19932;-59
2022/07/18 03:53:23;;;;;;;;;;;21.90;47.30;;;;;;5088910;28;19927;-59
2022/07/18 03:55:51;;;;;;;;;;;21.90;47.30;;;;;;5088931;28;19928;-59
2022/07/18 03:58:18;;;;;;;;;;;22.00;47.40;;;;;;5072359;28;19932;-58
2022/07/18 04:00:45;;;;;;;;;;;22.00;47.40;;;;;;5086338;28;19946;-59
2022/07/18 04:03:11;;;;;;;;;;;21.90;47.30;;;;;;5090925;28;19936;-59
2022/07/18 04:05:38;;;;;;;;;;;22.00;47.50;;;;;;5086919;28;19924;-58
2022/07/18 04:08:05;;;;;;;;;;;21.90;47.30;;;;;;5089362;28;19924;-60
2022/07/18 04:10:32;;;;;;;;;;;22.00;47.40;;;;;;5083437;28;19968;-59
2022/07/18 04:13:00;;;;;;;;;;;21.90;47.40;;;;;;5069119;28;20385;-59
2022/07/18 04:15:27;;;;;;;;;;;22.00;47.50;;;;;;5074263;28;20113;-59
2022/07/18 04:17:54;;;;;;;;;;;22.00;47.50;;;;;;5071010;28;19963;-59
2022/07/18 04:20:21;;;;;;;;;;;22.00;47.50;;;;;;5074225;28;20266;-59
2022/07/18 04:22:48;;;;;;;;;;;21.90;47.40;;;;;;5071539;28;20281;-59
2022/07/18 04:25:15;;;;;;;;;;;21.90;47.40;;;;;;5088079;28;19943;-59
2022/07/18 04:27:41;;;;;;;;;;;22.00;47.50;;;;;;5071765;28;20015;-58
2022/07/18 04:30:10;;;;;;;;;;;21.90;47.40;;;;;;5089694;28;19924;-57
2022/07/18 04:32:37;;;;;;;;;;;22.00;47.50;;;;;;5085607;28;19975;-59
2022/07/18 04:35:04;;;;;;;;;;;21.90;47.40;;;;;;5087962;28;19920;-59
2022/07/18 04:37:31;;;;;;;;;;;21.90;47.50;;;;;;5070758;28;19973;-60
2022/07/18 04:39:58;;;;;;;;;;;21.90;47.50;;;;;;5105748;27;20023;-59
2022/07/18 04:42:25;;;;;;;;;;;21.90;47.50;;;;;;5102575;28;19974;-59
2022/07/18 04:44:51;;;;;;;;;;;21.90;47.50;;;;;;5089597;28;19943;-59
2022/07/18 04:47:19;;;;;;;;;;;21.90;47.50;;;;;;5072671;28;20270;-59
2022/07/18 04:49:46;;;;;;;;;;;21.90;47.50;;;;;;5089377;28;19924;-59
2022/07/18 04:52:13;;;;;;;;;;;21.90;47.50;;;;;;5070291;28;19924;-60
2022/07/18 04:54:40;;;;;;;;;;;22.00;47.60;;;;;;5106813;27;19974;-59
2022/07/18 04:57:06;;;;;;;;;;;21.90;47.50;;;;;;5086572;28;20261;-59
2022/07/18 04:59:33;;;;;;;;;;;22.00;47.60;;;;;;5071210;28;19954;-58
2022/07/18 05:02:00;;;;;;;;;;;21.90;47.50;;;;;;5086948;28;20258;-59
2022/07/18 05:04:28;;;;;;;;;;;21.90;47.50;;;;;;5087368;28;19921;-59
2022/07/18 05:06:55;;;;;;;;;;;22.00;47.60;;;;;;5089145;28;19921;-59
2022/07/18 05:09:22;;;;;;;;;;;21.90;47.50;;;;;;5086719;28;19982;-58
2022/07/18 05:11:48;;;;;;;;;;;21.90;47.50;;;;;;5083031;28;20304;-59
2022/07/18 05:14:15;;;;;;;;;;;21.90;47.60;;;;;;5088533;28;19928;-60
2022/07/18 05:16:42;;;;;;;;;;;21.90;47.50;;;;;;5086349;28;20731;-59
2022/07/18 05:19:08;;;;;;;;;;;21.90;47.50;;;;;;5069217;28;19989;-58
2022/07/18 05:21:36;;;;;;;;;;;22.00;47.60;;;;;;5083225;28;19936;-58
2022/07/18 05:24:03;;;;;;;;;;;21.90;47.50;;;;;;5088469;28;19921;-60
2022/07/18 05:26:30;;;;;;;;;;;21.90;47.60;;;;;;5086444;28;19967;-60
2022/07/18 05:28:57;;;;;;;;;;;21.90;47.60;;;;;;5084689;28;19924;-59
2022/07/18 05:31:23;;;;;;;;;;;21.90;47.60;;;;;;5070755;28;19924;-60
2022/07/18 05:33:50;;;;;;;;;;;21.90;47.60;;;;;;5087790;28;20038;-60
2022/07/18 05:36:17;;;;;;;;;;;21.90;47.60;;;;;;5089685;28;20316;-59
2022/07/18 05:38:45;;;;;;;;;;;21.90;47.60;;;;;;5084684;28;19936;-59
2022/07/18 05:41:12;;;;;;;;;;;22.00;47.70;;;;;;5069194;28;20254;-60
2022/07/18 05:43:38;;;;;;;;;;;21.90;47.60;;;;;;5089219;28;19927;-59
2022/07/18 05:46:06;;;;;;;;;;;21.90;47.70;;;;;;5086236;28;20169;-59
2022/07/18 05:48:32;;;;;;;;;;;22.00;47.80;;;;;;5101204;28;19921;-60
2022/07/18 05:50:59;;;;;;;;;;;21.90;47.70;;;;;;5103395;27;19924;-59
2022/07/18 05:53:26;;;;;;;;;;;22.00;47.80;;;;;;5085304;28;19973;-60
2022/07/18 05:55:54;;;;;;;;;;;21.90;47.70;;;;;;5086496;28;19920;-59
2022/07/18 05:58:22;;;;;;;;;;;22.00;47.70;;;;;;5105584;27;20273;-60
2022/07/18 06:00:49;;;;;;;;;;;22.00;47.80;;;;;;5069959;28;19933;-60
2022/07/18 06:03:15;;;;;;;;;;;22.00;47.70;;;;;;5086503;28;19928;-60
2022/07/18 06:05:42;;;;;;;;;;;22.00;47.70;;;;;;5073907;28;20277;-60
2022/07/18 06:08:09;;;;;;;;;;;22.00;47.70;;;;;;5071862;28;19920;-60
2022/07/18 06:10:36;;;;;;;;;;;22.00;47.70;;;;;;5088179;28;19920;-60
2022/07/18 06:13:04;;;;;;;;;;;21.90;47.70;;;;;;5090820;28;20315;-59
2022/07/18 06:15:30;;;;;;;;;;;22.00;47.70;;;;;;5104794;28;19938;-60
2022/07/18 06:17:57;;;;;;;;;;;22.00;47.70;;;;;;5084074;28;20373;-59
2022/07/18 06:20:24;;;;;;;;;;;22.00;47.70;;;;;;5090313;28;19924;-58
2022/07/18 06:22:51;;;;;;;;;;;22.00;47.70;;;;;;5069586;28;19924;-60
2022/07/18 06:25:18;;;;;;;;;;;22.00;47.70;;;;;;5071421;28;19925;-60
2022/07/18 06:27:44;;;;;;;;;;;22.00;47.70;;;;;;5100522;28;20359;-59
2022/07/18 06:30:13;;;;;;;;;;;22.00;47.70;;;;;;5102277;28;19920;-60
2022/07/18 06:32:40;;;;;;;;;;;22.00;47.70;;;;;;5064405;28;19921;-58
2022/07/18 06:35:07;;;;;;;;;;;22.00;47.70;;;;;;5078130;28;19932;-59
2022/07/18 06:37:34;;;;;;;;;;;22.00;47.70;;;;;;5095834;28;19920;-59
2022/07/18 06:40:00;;;;;;;;;;;22.00;47.70;;;;;;5066536;28;19926;-59
2022/07/18 06:42:27;;;;;;;;;;;22.00;47.70;;;;;;5099600;27;19921;-58
2022/07/18 06:44:54;;;;;;;;;;;22.00;47.60;;;;;;5065171;28;19928;-59
2022/07/18 06:47:22;;;;;;;;;;;22.00;47.70;;;;;;5067642;28;20234;-60
2022/07/18 06:49:49;;;;;;;;;;;22.00;47.60;;;;;;5079707;28;19947;-59
2022/07/18 06:52:15;;;;;;;;;;;22.00;47.60;;;;;;5083650;28;19921;-60
2022/07/18 06:54:42;;;;;;;;;;;22.00;47.60;;;;;;5082995;28;19928;-60
2022/07/18 06:57:09;;;;;;;;;;;22.00;47.60;;;;;;5091548;28;19939;-57
2022/07/18 06:59:36;;;;;;;;;;;22.00;47.60;;;;;;5093503;28;19951;-59
2022/07/18 07:02:03;;;;;;;;;;;22.00;47.60;;;;;;5089883;28;19920;-59
2022/07/18 07:04:33;;;;;;;;;;;22.00;47.60;;;;;;5103598;28;19921;-58
2022/07/18 07:06:59;;;;;;;;;;;22.00;47.50;;;;;;5078700;28;19993;-59
2022/07/18 07:09:26;;;;;;;;;;;22.00;47.60;;;;;;5088892;28;19932;-60
2022/07/18 07:11:53;;;;;;;;;;;22.00;47.50;;;;;;5079010;28;20022;-59
2022/07/18 07:14:19;;;;;;;;;;;22.00;47.50;;;;;;5076953;28;19974;-60
2022/07/18 07:16:47;;;;;;;;;;;22.00;48.10;;;;;;5078812;28;19932;-60
2022/07/18 07:19:14;;;;;;;;;;;22.00;47.60;;;;;;5060199;28;19928;-59
2022/07/18 07:21:42;;;;;;;;;;;22.10;47.70;;;;;;5057244;28;20399;-60
2022/07/18 07:24:09;;;;;;;;;;;22.10;47.70;;;;;;5061327;28;20032;-60
2022/07/18 07:26:36;;;;;;;;;;;22.10;47.70;;;;;;5059127;28;20417;-60
2022/07/18 07:29:03;;;;;;;;;;;22.10;47.70;;;;;;5061900;28;19932;-61
2022/07/18 07:31:29;;;;;;;;;;;22.10;47.70;;;;;;5074036;28;19978;-60
2022/07/18 07:33:56;;;;;;;;;;;22.10;47.70;;;;;;5077883;28;19927;-61
2022/07/18 07:36:23;;;;;;;;;;;22.10;47.60;;;;;;5070118;28;19994;-61
2022/07/18 07:38:51;;;;;;;;;;;22.10;47.70;;;;;;5103396;28;19931;-61
2022/07/18 07:41:18;;;;;;;;;;;22.10;47.60;;;;;;5075206;28;20030;-60
2022/07/18 07:43:45;;;;;;;;;;;22.10;47.60;;;;;;5071123;28;20014;-63
2022/07/18 07:46:12;;;;;;;;;;;22.20;47.70;;;;;;5073738;28;19928;-60
2022/07/18 07:48:38;;;;;;;;;;;22.20;47.70;;;;;;5074998;28;19934;-61
2022/07/18 07:51:05;;;;;;;;;;;22.20;47.70;;;;;;5069442;28;19932;-60
2022/07/18 07:53:32;;;;;;;;;;;22.20;47.70;;;;;;5078981;28;19932;-61
2022/07/18 07:56:00;;;;;;;;;;;22.20;47.70;;;;;;5080122;28;20273;-59
2022/07/18 07:58:27;;;;;;;;;;;22.20;47.60;;;;;;5068768;28;20031;-60
2022/07/18 08:00:54;;;;;;;;;;;22.20;47.70;;;;;;5067031;28;19974;-60
2022/07/18 08:03:21;;;;;;;;;;;22.30;47.80;;;;;;5068024;28;20310;-59
2022/07/18 08:05:48;;;;;;;;;;;22.20;47.70;;;;;;5085038;28;20196;-60
2022/07/18 08:08:15;;;;;;;;;;;22.30;47.80;;;;;;5067761;28;19921;-60
2022/07/18 08:10:42;;;;;;;;;;;22.30;47.70;;;;;;5059815;28;20421;-60
2022/07/18 08:13:10;;;;;;;;;;;22.30;47.70;;;;;;5065449;28;19927;-60
2022/07/18 08:15:37;;;;;;;;;;;22.30;47.80;;;;;;5105488;27;19943;-61
2022/07/18 08:18:04;;;;;;;;;;;22.30;47.80;;;;;;5068581;28;19928;-61
2022/07/18 08:20:33;;;;;;;;;;;22.30;47.80;;;;;;5082053;28;20395;-60
2022/07/18 08:23:00;;;;;;;;;;;22.30;48.30;;;;;;5102548;27;19985;-60
2022/07/18 08:25:27;;;;;;;;;;;22.30;47.80;;;;;;5069444;28;19928;-61
2022/07/18 08:27:54;;;;;;;;;;;22.30;47.80;;;;;;5094218;27;20007;-60
2022/07/18 08:30:22;;;;;;;;;;;22.30;47.80;;;;;;5078599;28;19925;-60
2022/07/18 08:32:49;;;;;;;;;;;22.40;47.80;;;;;;5077067;28;19920;-61
2022/07/18 08:35:16;;;;;;;;;;;22.30;47.80;;;;;;5094160;27;20407;-61
2022/07/18 08:37:42;;;;;;;;;;;22.40;47.80;;;;;;5076565;28;20572;-61
2022/07/18 08:40:09;;;;;;;;;;;22.40;47.80;;;;;;5070981;28;19921;-60
2022/07/18 08:42:36;;;;;;;;;;;22.40;47.80;;;;;;5065688;28;19974;-60
2022/07/18 08:45:03;;;;;;;;;;;22.40;47.80;;;;;;5078058;28;19928;-60
2022/07/18 08:47:31;;;;;;;;;;;22.40;47.80;;;;;;5076741;28;20348;-59
2022/07/18 08:49:58;;;;;;;;;;;22.40;47.80;;;;;;5070199;28;20009;-61
2022/07/18 08:52:25;;;;;;;;;;;22.40;47.80;;;;;;5076829;28;19925;-61
2022/07/18 08:54:52;;;;;;;;;;;22.40;47.80;;;;;;5097870;27;19978;-61
2022/07/18 08:57:19;;;;;;;;;;;22.40;47.90;;;;;;5072074;28;20020;-60
2022/07/18 08:59:45;;;;;;;;;;;22.40;47.80;;;;;;5063574;28;19968;-61
2022/07/18 09:02:12;;;;;;;;;;;22.40;47.80;;;;;;5102362;27;19990;-61
2022/07/18 09:04:41;;;;;;;;;;;22.50;47.90;;;;;;5062935;28;19925;-61
2022/07/18 09:07:08;;;;;;;;;;;22.50;47.90;;;;;;5102534;27;20259;-61
2022/07/18 09:09:35;;;;;;;;;;;22.50;47.90;;;;;;5067897;28;19999;-61
2022/07/18 09:12:02;;;;;;;;;;;22.50;48.00;;;;;;5098830;27;20033;-63
2022/07/18 09:14:39;;;;;;;;;;;22.50;48.00;;;;;;5064771;28;19929;-60
2022/07/18 09:17:10;;;;;;;;;;;22.50;47.90;;;;;;5064159;28;19924;-60
2022/07/18 09:19:36;;;;;;;;;;;22.50;47.90;;;;;;5061962;28;19925;-60
2022/07/18 09:22:27;;;;;;;;;;;22.50;47.90;;;;;;5081041;28;20014;-61
2022/07/18 09:24:58;;;;;;;;;;;22.50;47.90;;;;;;5077669;28;20153;-62
2022/07/18 09:27:25;;;;;;;;;;;22.50;47.90;;;;;;5077576;28;19921;-61
2022/07/18 09:30:09;;;;;;;;;;;22.50;47.90;;;;;;5075333;28;19925;-60
2022/07/18 09:32:35;;;;;;;;;;;22.60;48.00;;;;;;5096711;27;20140;-61
2022/07/18 09:35:05;;;;;;;;;;;22.60;48.00;;;;;;5096859;27;19995;-61
2022/07/18 09:37:33;;;;;;;;;;;22.60;48.00;;;;;;5097369;28;19927;-61
2022/07/18 09:40:06;;;;;;;;;;;22.60;48.00;;;;;;5093942;27;20032;-61
2022/07/18 09:42:33;;;;;;;;;;;22.60;48.00;;;;;;5073242;28;19929;-61
2022/07/18 09:45:01;;;;;;;;;;;22.60;48.00;;;;;;5066421;28;19931;-61
2022/07/18 09:47:28;;;;;;;;;;;22.60;48.00;;;;;;5091203;27;20000;-61
2022/07/18 09:49:55;;;;;;;;;;;22.60;48.00;;;;;;5078770;28;19928;-61
2022/07/18 09:52:21;;;;;;;;;;;22.60;48.00;;;;;;5081961;28;20043;-61
2022/07/18 09:54:49;;;;;;;;;;;22.60;48.00;;;;;;5064608;28;19928;-59
2022/07/18 09:57:23;;;;;;;;;;;22.60;48.00;;;;;;5067787;28;20413;-60
2022/07/18 09:59:50;;;;;;;;;;;22.60;48.00;;;;;;5097505;27;19989;-60
2022/07/18 10:02:19;;;;;;;;;;;22.60;48.00;;;;;;5080083;28;20354;-61
2022/07/18 10:04:46;;;;;;;;;;;22.60;48.00;;;;;;5081870;28;19964;-60
2022/07/18 10:07:13;;;;;;;;;;;22.60;48.00;;;;;;5074263;28;19974;-59
2022/07/18 10:09:40;;;;;;;;;;;22.60;48.00;;;;;;5081299;28;19933;-60
2022/07/18 10:12:09;;;;;;;;;;;22.60;48.00;;;;;;5083790;28;19978;-60
2022/07/18 10:14:35;;;;;;;;;;;22.60;48.00;;;;;;5068811;28;20003;-61
2022/07/18 10:17:02;;;;;;;;;;;22.70;48.00;;;;;;5097410;27;20019;-60
2022/07/18 10:19:29;;;;;;;;;;;22.70;48.00;;;;;;5077311;28;19979;-60
2022/07/18 10:21:56;;;;;;;;;;;22.70;48.00;;;;;;5080540;28;19929;-60
2022/07/18 10:24:23;;;;;;;;;;;22.70;48.00;;;;;;5079472;28;20365;-60
2022/07/18 10:27:04;;;;;;;;;;;22.70;48.00;;;;;;5079806;28;19924;-60
2022/07/18 10:29:33;;;;;;;;;;;22.70;48.00;;;;;;5078722;28;19920;-60
2022/07/18 10:32:00;;;;;;;;;;;22.70;48.00;;;;;;5058991;28;19956;-60
2022/07/18 10:34:27;;;;;;;;;;;22.70;48.00;;;;;;5095541;28;19924;-59
2022/07/18 10:37:12;;;;;;;;;;;22.70;48.00;;;;;;5088290;28;19921;-59
2022/07/18 10:39:39;;;;;;;;;;;22.70;48.00;;;;;;5104998;28;19982;-61
2022/07/18 10:42:17;;;;;;;;;;;22.70;48.00;;;;;;5085285;28;20194;-61
2022/07/18 10:44:44;;;;;;;;;;;22.70;48.00;;;;;;5101793;28;19920;-60
2022/07/18 10:47:12;;;;;;;;;;;22.70;48.00;;;;;;5123375;27;20027;-65
2022/07/18 10:49:58;;;;;;;;;;;22.70;48.00;;;;;;5084316;28;19920;-64
2022/07/18 10:52:43;;;;;;;;;;;22.70;48.00;;;;;;5101593;28;20384;-64
2022/07/18 10:55:28;;;;;;;;;;;22.70;48.00;;;;;;5090334;28;19921;-65
2022/07/18 10:58:11;;;;;;;;;;;22.70;48.00;;;;;;5102950;27;19920;-64
2022/07/18 11:00:38;;;;;;;;;;;22.70;48.00;;;;;;5101688;28;19924;-64
2022/07/18 11:03:05;;;;;;;;;;;22.70;48.00;;;;;;5101405;28;19985;-64
2022/07/18 11:05:33;;;;;;;;;;;22.80;48.10;;;;;;5085888;28;19935;-64
2022/07/18 11:08:19;;;;;;;;;;;22.80;48.10;;;;;;5110743;27;20416;-64
2022/07/18 11:11:19;;;;;;;;;;;22.80;48.60;;;;;;5098949;28;19921;-64
2022/07/18 11:13:49;;;;;;;;;;;22.80;48.10;;;;;;5042354;28;19921;-64
2022/07/18 11:16:17;;;;;;;;;;;22.80;48.00;;;;;;5035047;28;19921;-65
2022/07/18 11:19:02;;;;;;;;;;;22.80;47.90;;;;;;5058156;28;19928;-65
2022/07/18 11:21:29;;;;;;;;;;;22.80;47.90;;;;;;5105295;28;19928;-65
2022/07/18 11:24:00;;;;;;;;;;;22.80;47.80;;;;;;5085522;28;19921;-65
2022/07/18 11:26:26;;;;;;;;;;;22.80;47.70;;;;;;5094173;28;20023;-65
2022/07/18 11:28:58;;;;;;;;;;;22.90;47.70;;;;;;5083697;28;19921;-65
2022/07/18 11:31:25;;;;;;;;;;;22.90;47.70;;;;;;5082029;28;19966;-65
2022/07/18 11:33:52;;;;;;;;;;;22.90;47.70;;;;;;5078861;28;19929;-65
2022/07/18 11:36:20;;;;;;;;;;;22.90;47.70;;;;;;5099405;28;19927;-64
2022/07/18 11:38:47;;;;;;;;;;;22.90;47.70;;;;;;5100636;28;20359;-64
2022/07/18 11:41:14;;;;;;;;;;;22.90;47.70;;;;;;5098352;28;20391;-63
2022/07/18 11:43:41;;;;;;;;;;;22.90;47.70;;;;;;5086929;28;19920;-64
2022/07/18 11:46:09;;;;;;;;;;;22.90;47.70;;;;;;5096407;28;19924;-65
2022/07/18 11:48:37;;;;;;;;;;;22.90;47.70;;;;;;5072046;28;19974;-65
2022/07/18 11:51:04;;;;;;;;;;;22.90;47.70;;;;;;5077145;28;19920;-66
2022/07/18 11:53:31;;;;;;;;;;;22.90;47.70;;;;;;5071866;28;20475;-66
2022/07/18 11:55:58;;;;;;;;;;;22.90;47.70;;;;;;5063714;28;20346;-65
2022/07/18 11:58:25;;;;;;;;;;;22.90;47.70;;;;;;5095407;28;19946;-64
2022/07/18 12:00:52;;;;;;;;;;;22.90;47.70;;;;;;5066182;28;20341;-64
2022/07/18 12:03:22;;;;;;;;;;;22.90;47.70;;;;;;5069603;28;20364;-65
2022/07/18 12:05:49;;;;;;;;;;;22.90;47.70;;;;;;5084072;28;19996;-64
2022/07/18 12:08:26;;;;;;;;;;;23.00;47.90;;;;;;5071330;28;19920;-65
2022/07/18 12:11:03;;;;;;;;;;;23.00;47.90;;;;;;5071313;28;19963;-65
2022/07/18 12:13:39;;;;;;;;;;;23.00;47.80;;;;;;5081592;28;19920;-64
2022/07/18 12:16:06;;;;;;;;;;;23.00;47.80;;;;;;5075827;28;19974;-64
2022/07/18 12:18:34;;;;;;;;;;;23.00;47.80;;;;;;5094841;28;19925;-64
2022/07/18 12:21:08;;;;;;;;;;;23.00;47.80;;;;;;5076232;28;20323;-64
2022/07/18 12:23:34;;;;;;;;;;;23.00;47.80;;;;;;5069912;28;19924;-65
2022/07/18 12:26:01;;;;;;;;;;;23.00;47.80;;;;;;5084043;28;20312;-64
2022/07/18 12:28:28;;;;;;;;;;;23.00;47.80;;;;;;5081000;28;20023;-64
2022/07/18 12:30:55;;;;;;;;;;;23.00;47.80;;;;;;5079878;28;19926;-64
2022/07/18 12:33:21;;;;;;;;;;;23.00;47.90;;;;;;5075429;28;19927;-64
2022/07/18 12:35:57;;;;;;;;;;;23.00;47.90;;;;;;5066814;28;19935;-65
2022/07/18 12:38:24;;;;;;;;;;;23.10;48.00;;;;;;5068762;28;19975;-64
2022/07/18 12:40:52;;;;;;;;;;;23.10;48.00;;;;;;5083830;28;19920;-65
2022/07/18 12:43:23;;;;;;;;;;;23.10;48.00;;;;;;5075451;28;19981;-65
2022/07/18 12:45:50;;;;;;;;;;;23.10;48.60;;;;;;5073911;28;19920;-66
2022/07/18 12:48:16;;;;;;;;;;;23.10;48.00;;;;;;5072319;28;19921;-65
2022/07/18 12:50:44;;;;;;;;;;;23.10;48.00;;;;;;5069669;28;19944;-64
2022/07/18 12:53:12;;;;;;;;;;;23.10;48.00;;;;;;5088474;28;19920;-64
2022/07/18 12:55:39;;;;;;;;;;;23.10;48.00;;;;;;5068958;28;19932;-65
2022/07/18 12:58:06;;;;;;;;;;;23.10;48.00;;;;;;5084536;28;19924;-65
2022/07/18 13:00:33;;;;;;;;;;;23.10;48.00;;;;;;5067765;28;19935;-64
2022/07/18 13:03:00;;;;;;;;;;;23.10;48.00;;;;;;5073579;28;19932;-63
2022/07/18 13:05:27;;;;;;;;;;;23.10;47.90;;;;;;5100963;28;19966;-64
2022/07/18 13:07:54;;;;;;;;;;;23.10;47.90;;;;;;5075990;28;19928;-65
2022/07/18 13:10:22;;;;;;;;;;;23.10;47.90;;;;;;5067181;28;20277;-64
2022/07/18 13:12:49;;;;;;;;;;;23.10;47.90;;;;;;5057562;28;19928;-64
2022/07/18 13:15:18;;;;;;;;;;;23.10;47.90;;;;;;5081342;28;19920;-64
2022/07/18 13:17:45;;;;;;;;;;;23.10;47.90;;;;;;5080670;28;19924;-65
2022/07/18 13:20:12;;;;;;;;;;;23.10;47.90;;;;;;5085231;28;20281;-64
2022/07/18 13:22:39;;;;;;;;;;;23.10;47.90;;;;;;5069164;28;19924;-58
2022/07/18 13:25:06;;;;;;;;;;;23.20;48.00;;;;;;5077693;28;20362;-63
2022/07/18 13:27:35;;;;;;;;;;;23.10;47.90;;;;;;5072928;28;19920;-65
2022/07/18 13:30:01;;;;;;;;;;;23.20;48.00;;;;;;5072840;28;19920;-66
2022/07/18 13:32:28;;;;;;;;;;;23.20;48.00;;;;;;5083383;28;19927;-63
2022/07/18 13:34:55;;;;;;;;;;;23.20;47.90;;;;;;5068109;28;19921;-65
2022/07/18 13:37:22;;;;;;;;;;;23.20;47.90;;;;;;5084177;28;19926;-65
2022/07/18 13:39:49;;;;;;;;;;;23.20;47.90;;;;;;5060489;28;19924;-64
2022/07/18 13:42:15;;;;;;;;;;;23.20;47.90;;;;;;5081450;28;19951;-67
2022/07/18 13:44:45;;;;;;;;;;;23.20;47.90;;;;;;5067117;28;19921;-59
2022/07/18 13:47:12;;;;;;;;;;;23.20;47.90;;;;;;5070253;28;19943;-64
2022/07/18 13:49:39;;;;;;;;;;;23.20;47.80;;;;;;5084629;28;19920;-64
2022/07/18 13:52:05;;;;;;;;;;;23.20;47.80;;;;;;5079676;28;19921;-64
2022/07/18 13:54:33;;;;;;;;;;;23.20;47.80;;;;;;5061197;28;19943;-65
2022/07/18 13:56:59;;;;;;;;;;;23.20;47.80;;;;;;5072521;28;19921;-65
2022/07/18 13:59:26;;;;;;;;;;;23.20;47.80;;;;;;5070735;28;20361;-64
2022/07/18 14:01:55;;;;;;;;;;;23.20;47.80;;;;;;5080135;28;19921;-67
2022/07/18 14:04:22;;;;;;;;;;;23.20;47.80;;;;;;5065650;28;19986;-66
2022/07/18 14:06:49;;;;;;;;;;;23.20;47.80;;;;;;5091283;28;19921;-64
2022/07/18 14:09:15;;;;;;;;;;;23.20;47.70;;;;;;5079376;28;19924;-66
2022/07/18 14:11:42;;;;;;;;;;;23.20;47.70;;;;;;5065052;28;19920;-64
2022/07/18 14:14:09;;;;;;;;;;;23.20;47.70;;;;;;5071646;28;19991;-64
2022/07/18 14:16:37;;;;;;;;;;;23.20;47.70;;;;;;5065152;28;19989;-64
2022/07/18 14:19:06;;;;;;;;;;;23.20;47.70;;;;;;5078932;28;19920;-64